Fairpoint, OH

7:17 AM EST on November 24, 2014 (GMT -0500)
Wheeling-Ohio County | Change Station
CLOSE
Current Station
Airport
Location: Wheeling,
Elevation: 1194 ft
Nearby Weather Stations
Active Advisory: Wind Advisory Active Notice: Public Information Statement

Elev 1194 ft 40.17 °N, 80.65 °W | Updated 24 minutes ago

Overcast
Overcast
60 °F
Feels Like 60 °F
N
14
Wind Variable Wind from SSW

Today
High -- | Low -- °F
--% Chance of Precip.
Yesterday
High -- | Low -- °F
Precip. -- in
7:19 AM 5:01 PM
Waxing Crescent, 5% visible
Pressure 29.44 in
Visibility 10.0 miles
Clouds Mostly Cloudy 3600 ft
Overcast 4700 ft
Dew Point 52 °F
Humidity 75%
Rainfall 0.02 in
Snow Depth Not available.
UV 0 out of 12
Pollen .10 out of 12
Air Quality Not available.
Flu Activity Not available.
METAR KHLG 241153Z 21012KT 10SM BKN036 OVC047 16/11 A2944 RMK AO2 RAE10 SLP968 P0000 60001 70014 T01560111 10161 20139 51018

More Conditions Fewer Conditions

Pressure 29.44 in
Visibility 10.0 miles
Clouds Mostly Cloudy 3600 ft
Overcast 4700 ft
Dew Point 52 °F
Humidity 75%
Rainfall 0.02 in
Snow Depth Not available.
UV 0 out of 12
Pollen .10 out of 12
Air Quality Not available.
Flu Activity Not available.
METAR KHLG 241153Z 21012KT 10SM BKN036 OVC047 16/11 A2944 RMK AO2 RAE10 SLP968 P0000 60001 70014 T01560111 10161 20139 51018

More Conditions Fewer Conditions

10-Day Weather Forecast

Almanac

Astronomy

Nov. 24, 2014 Rise Set
Actual Time
Civil Twilight
Nautical Twilight
Astronomical Twilight
Moon
Length of Visible Light
Length of Day
Tomorrow will be .
, % of the Moon is Illuminated

Today's Extremes

State Highs State Lows

Community

WunderPhotos

Upload Photos

1,773,319 photos uploaded!

WunderBlogs® & News

Nearby

Air Quality

  Air Quality AQ Index Pollutant
Not available.

Snow Depth

Station Depth Elevation

Earthquake Activity

City Distance Mag. Time & Date
Minimum magnitude displayed is 2.5.

Coastal Water Temperatures

Place Temperature

Nearby Weather Stations